sensor_id;sensor_type;location;lat;lon;timestamp;temperature;humidity
28532;DHT22;15738;44.860;10.066;2023-05-07T00:02:21;19.00;99.90
28532;DHT22;15738;44.860;10.066;2023-05-07T00:05:07;19.00;99.90
28532;DHT22;15738;44.860;10.066;2023-05-07T00:07:54;18.90;99.90
28532;DHT22;15738;44.860;10.066;2023-05-07T00:10:42;18.80;99.90
28532;DHT22;15738;44.860;10.066;2023-05-07T00:13:27;18.80;99.90
28532;DHT22;15738;44.860;10.066;2023-05-07T00:16:16;18.80;99.90
28532;DHT22;15738;44.860;10.066;2023-05-07T00:19:02;18.80;99.90
28532;DHT22;15738;44.860;10.066;2023-05-07T00:21:47;18.80;99.90
28532;DHT22;15738;44.860;10.066;2023-05-07T00:24:33;18.70;99.90
28532;DHT22;15738;44.860;10.066;2023-05-07T00:27:19;18.70;99.90
28532;DHT22;15738;44.860;10.066;2023-05-07T00:30:04;18.70;99.90
28532;DHT22;15738;44.860;10.066;2023-05-07T00:32:50;18.70;99.90
28532;DHT22;15738;44.860;10.066;2023-05-07T00:35:36;18.70;99.90
28532;DHT22;15738;44.860;10.066;2023-05-07T00:38:22;18.70;99.90
28532;DHT22;15738;44.860;10.066;2023-05-07T00:41:08;18.70;99.90
28532;DHT22;15738;44.860;10.066;2023-05-07T00:43:53;18.70;99.90
28532;DHT22;15738;44.860;10.066;2023-05-07T00:46:40;18.60;99.90
28532;DHT22;15738;44.860;10.066;2023-05-07T00:49:28;18.70;99.90
28532;DHT22;15738;44.860;10.066;2023-05-07T00:52:15;18.60;99.90
28532;DHT22;15738;44.860;10.066;2023-05-07T00:55:05;18.60;99.90
28532;DHT22;15738;44.860;10.066;2023-05-07T00:57:52;18.50;99.90
28532;DHT22;15738;44.860;10.066;2023-05-07T01:00:37;18.50;99.90
28532;DHT22;15738;44.860;10.066;2023-05-07T01:03:23;18.50;99.90
28532;DHT22;15738;44.860;10.066;2023-05-07T01:06:09;18.50;99.90
28532;DHT22;15738;44.860;10.066;2023-05-07T01:08:58;18.40;99.90
28532;DHT22;15738;44.860;10.066;2023-05-07T01:11:45;18.40;99.90
28532;DHT22;15738;44.860;10.066;2023-05-07T01:14:31;18.40;99.90
28532;DHT22;15738;44.860;10.066;2023-05-07T01:17:18;18.40;99.90
28532;DHT22;15738;44.860;10.066;2023-05-07T01:20:05;18.40;99.90
28532;DHT22;15738;44.860;10.066;2023-05-07T01:22:51;18.40;99.90
28532;DHT22;15738;44.860;10.066;2023-05-07T01:25:37;18.40;99.90
28532;DHT22;15738;44.860;10.066;2023-05-07T01:28:24;18.40;99.90
28532;DHT22;15738;44.860;10.066;2023-05-07T01:31:15;18.50;99.90
28532;DHT22;15738;44.860;10.066;2023-05-07T01:34:01;18.50;99.90
28532;DHT22;15738;44.860;10.066;2023-05-07T01:36:49;18.50;99.90
28532;DHT22;15738;44.860;10.066;2023-05-07T01:39:35;18.40;99.90
28532;DHT22;15738;44.860;10.066;2023-05-07T01:42:21;18.40;99.90
28532;DHT22;15738;44.860;10.066;2023-05-07T01:45:07;18.40;99.90
28532;DHT22;15738;44.860;10.066;2023-05-07T01:47:52;18.40;99.90
28532;DHT22;15738;44.860;10.066;2023-05-07T01:50:38;18.30;99.90
28532;DHT22;15738;44.860;10.066;2023-05-07T01:53:26;18.30;99.90
28532;DHT22;15738;44.860;10.066;2023-05-07T01:56:12;18.40;99.90
28532;DHT22;15738;44.860;10.066;2023-05-07T01:59:00;18.30;99.90
28532;DHT22;15738;44.860;10.066;2023-05-07T02:01:46;18.30;99.90
28532;DHT22;15738;44.860;10.066;2023-05-07T02:04:33;18.30;99.90
28532;DHT22;15738;44.860;10.066;2023-05-07T02:07:19;18.30;99.90
28532;DHT22;15738;44.860;10.066;2023-05-07T02:10:05;18.20;99.90
28532;DHT22;15738;44.860;10.066;2023-05-07T02:12:51;18.20;99.90
28532;DHT22;15738;44.860;10.066;2023-05-07T02:15:37;18.20;99.90
28532;DHT22;15738;44.860;10.066;2023-05-07T02:18:22;18.10;99.90
28532;DHT22;15738;44.860;10.066;2023-05-07T02:21:08;18.10;99.90
28532;DHT22;15738;44.860;10.066;2023-05-07T02:23:54;18.00;99.90
28532;DHT22;15738;44.860;10.066;2023-05-07T02:26:40;18.00;99.90
28532;DHT22;15738;44.860;10.066;2023-05-07T02:29:26;17.90;99.90
28532;DHT22;15738;44.860;10.066;2023-05-07T02:32:12;17.90;99.90
28532;DHT22;15738;44.860;10.066;2023-05-07T02:34:58;17.80;99.90
28532;DHT22;15738;44.860;10.066;2023-05-07T02:37:44;17.80;99.90
28532;DHT22;15738;44.860;10.066;2023-05-07T02:40:31;17.70;99.90
28532;DHT22;15738;44.860;10.066;2023-05-07T02:43:19;17.80;99.90
28532;DHT22;15738;44.860;10.066;2023-05-07T02:46:07;17.80;99.90
28532;DHT22;15738;44.860;10.066;2023-05-07T02:48:57;17.80;99.90
28532;DHT22;15738;44.860;10.066;2023-05-07T02:51:43;17.80;99.90
28532;DHT22;15738;44.860;10.066;2023-05-07T02:54:35;17.80;99.90
28532;DHT22;15738;44.860;10.066;2023-05-07T02:57:21;17.80;99.90
28532;DHT22;15738;44.860;10.066;2023-05-07T03:00:13;17.90;99.90
28532;DHT22;15738;44.860;10.066;2023-05-07T03:03:06;17.90;99.90
28532;DHT22;15738;44.860;10.066;2023-05-07T03:05:52;17.80;99.90
28532;DHT22;15738;44.860;10.066;2023-05-07T03:08:38;17.80;99.90
28532;DHT22;15738;44.860;10.066;2023-05-07T03:11:24;17.80;99.90
28532;DHT22;15738;44.860;10.066;2023-05-07T03:14:09;17.80;99.90
28532;DHT22;15738;44.860;10.066;2023-05-07T03:16:56;17.70;99.90
28532;DHT22;15738;44.860;10.066;2023-05-07T03:19:42;17.80;99.90
28532;DHT22;15738;44.860;10.066;2023-05-07T03:22:27;17.80;99.90
28532;DHT22;15738;44.860;10.066;2023-05-07T03:25:13;17.80;99.90
28532;DHT22;15738;44.860;10.066;2023-05-07T03:27:59;17.80;99.90
28532;DHT22;15738;44.860;10.066;2023-05-07T03:30:54;17.80;99.90
28532;DHT22;15738;44.860;10.066;2023-05-07T03:33:53;17.80;99.90
28532;DHT22;15738;44.860;10.066;2023-05-07T03:36:39;17.80;99.90
28532;DHT22;15738;44.860;10.066;2023-05-07T03:39:27;17.80;99.90
28532;DHT22;15738;44.860;10.066;2023-05-07T03:42:13;17.80;99.90
28532;DHT22;15738;44.860;10.066;2023-05-07T03:44:59;17.80;99.90
28532;DHT22;15738;44.860;10.066;2023-05-07T03:47:44;17.80;99.90
28532;DHT22;15738;44.860;10.066;2023-05-07T03:50:35;17.70;99.90
28532;DHT22;15738;44.860;10.066;2023-05-07T03:53:21;17.70;99.90
28532;DHT22;15738;44.860;10.066;2023-05-07T03:56:07;17.60;99.90
28532;DHT22;15738;44.860;10.066;2023-05-07T03:58:55;17.60;99.90
28532;DHT22;15738;44.860;10.066;2023-05-07T04:01:41;17.60;99.90
28532;DHT22;15738;44.860;10.066;2023-05-07T04:04:33;17.50;99.90
28532;DHT22;15738;44.860;10.066;2023-05-07T04:07:19;17.50;99.90
28532;DHT22;15738;44.860;10.066;2023-05-07T04:10:07;17.50;99.90
28532;DHT22;15738;44.860;10.066;2023-05-07T04:12:57;17.50;99.90
28532;DHT22;15738;44.860;10.066;2023-05-07T04:15:44;17.40;99.90
28532;DHT22;15738;44.860;10.066;2023-05-07T04:18:34;17.40;99.90
28532;DHT22;15738;44.860;10.066;2023-05-07T04:21:20;17.40;99.90
28532;DHT22;15738;44.860;10.066;2023-05-07T04:24:08;17.40;99.90
28532;DHT22;15738;44.860;10.066;2023-05-07T04:26:54;17.40;99.90
28532;DHT22;15738;44.860;10.066;2023-05-07T04:29:41;17.50;99.90
28532;DHT22;15738;44.860;10.066;2023-05-07T04:32:30;17.50;99.90
28532;DHT22;15738;44.860;10.066;2023-05-07T04:35:17;17.50;99.90
28532;DHT22;15738;44.860;10.066;2023-05-07T04:38:04;17.60;99.90
28532;DHT22;15738;44.860;10.066;2023-05-07T04:40:51;17.00;99.90
28532;DHT22;15738;44.860;10.066;2023-05-07T04:43:42;17.60;99.90
28532;DHT22;15738;44.860;10.066;2023-05-07T04:46:30;17.70;99.90
28532;DHT22;15738;44.860;10.066;2023-05-07T04:49:16;17.70;99.90
28532;DHT22;15738;44.860;10.066;2023-05-07T04:52:02;17.80;99.90
28532;DHT22;15738;44.860;10.066;2023-05-07T04:54:49;17.90;99.90
28532;DHT22;15738;44.860;10.066;2023-05-07T04:57:35;17.90;99.90
28532;DHT22;15738;44.860;10.066;2023-05-07T05:00:22;18.00;99.90
28532;DHT22;15738;44.860;10.066;2023-05-07T05:03:10;18.10;99.90
28532;DHT22;15738;44.860;10.066;2023-05-07T05:05:57;18.20;99.90
28532;DHT22;15738;44.860;10.066;2023-05-07T05:08:48;18.30;99.90
28532;DHT22;15738;44.860;10.066;2023-05-07T05:11:34;18.50;99.90
28532;DHT22;15738;44.860;10.066;2023-05-07T05:14:20;18.70;99.90
28532;DHT22;15738;44.860;10.066;2023-05-07T05:17:06;18.90;99.90
28532;DHT22;15738;44.860;10.066;2023-05-07T05:19:54;19.40;99.90
28532;DHT22;15738;44.860;10.066;2023-05-07T05:22:42;19.90;99.90
28532;DHT22;15738;44.860;10.066;2023-05-07T05:25:29;20.20;99.90
28532;DHT22;15738;44.860;10.066;2023-05-07T05:28:16;20.40;99.90
28532;DHT22;15738;44.860;10.066;2023-05-07T05:31:02;20.60;99.90
28532;DHT22;15738;44.860;10.066;2023-05-07T05:33:51;20.70;99.90
28532;DHT22;15738;44.860;10.066;2023-05-07T05:36:36;20.90;99.90
28532;DHT22;15738;44.860;10.066;2023-05-07T05:39:22;20.80;99.90
28532;DHT22;15738;44.860;10.066;2023-05-07T05:42:08;20.70;99.90
28532;DHT22;15738;44.860;10.066;2023-05-07T05:44:54;20.70;99.90
28532;DHT22;15738;44.860;10.066;2023-05-07T05:47:40;20.70;99.90
28532;DHT22;15738;44.860;10.066;2023-05-07T05:50:26;20.70;99.90
28532;DHT22;15738;44.860;10.066;2023-05-07T05:53:13;20.70;99.90
28532;DHT22;15738;44.860;10.066;2023-05-07T05:55:58;20.80;99.90
28532;DHT22;15738;44.860;10.066;2023-05-07T05:58:44;20.80;99.90
28532;DHT22;15738;44.860;10.066;2023-05-07T06:01:31;20.80;99.90
28532;DHT22;15738;44.860;10.066;2023-05-07T06:04:20;20.90;99.90
28532;DHT22;15738;44.860;10.066;2023-05-07T06:07:05;21.00;99.90
28532;DHT22;15738;44.860;10.066;2023-05-07T06:09:52;21.10;99.90
28532;DHT22;15738;44.860;10.066;2023-05-07T06:12:39;21.10;99.90
28532;DHT22;15738;44.860;10.066;2023-05-07T06:15:25;21.10;99.90
28532;DHT22;15738;44.860;10.066;2023-05-07T06:18:11;21.20;99.90
28532;DHT22;15738;44.860;10.066;2023-05-07T06:20:58;21.40;99.90
28532;DHT22;15738;44.860;10.066;2023-05-07T06:23:47;21.50;99.90
28532;DHT22;15738;44.860;10.066;2023-05-07T06:26:33;21.60;99.90
28532;DHT22;15738;44.860;10.066;2023-05-07T06:29:18;21.80;99.90
28532;DHT22;15738;44.860;10.066;2023-05-07T06:32:11;22.00;99.90
28532;DHT22;15738;44.860;10.066;2023-05-07T06:34:59;22.20;99.90
28532;DHT22;15738;44.860;10.066;2023-05-07T06:37:45;22.40;99.90
28532;DHT22;15738;44.860;10.066;2023-05-07T06:40:36;22.70;99.90
28532;DHT22;15738;44.860;10.066;2023-05-07T06:43:22;23.00;99.90
28532;DHT22;15738;44.860;10.066;2023-05-07T06:46:31;23.20;99.90
28532;DHT22;15738;44.860;10.066;2023-05-07T06:49:16;23.50;99.90
28532;DHT22;15738;44.860;10.066;2023-05-07T06:52:03;23.80;99.90
28532;DHT22;15738;44.860;10.066;2023-05-07T06:54:49;23.90;99.90
28532;DHT22;15738;44.860;10.066;2023-05-07T06:57:38;24.00;99.90
28532;DHT22;15738;44.860;10.066;2023-05-07T07:00:24;24.20;99.90
28532;DHT22;15738;44.860;10.066;2023-05-07T07:03:13;24.40;99.90
28532;DHT22;15738;44.860;10.066;2023-05-07T07:05:59;24.60;99.90
28532;DHT22;15738;44.860;10.066;2023-05-07T07:08:44;24.70;99.90
28532;DHT22;15738;44.860;10.066;2023-05-07T07:11:32;24.90;99.90
28532;DHT22;15738;44.860;10.066;2023-05-07T07:14:18;25.00;99.90
28532;DHT22;15738;44.860;10.066;2023-05-07T07:17:07;25.10;99.90
28532;DHT22;15738;44.860;10.066;2023-05-07T07:19:53;25.30;99.90
28532;DHT22;15738;44.860;10.066;2023-05-07T07:22:39;25.40;99.90
28532;DHT22;15738;44.860;10.066;2023-05-07T07:25:25;25.60;99.90
28532;DHT22;15738;44.860;10.066;2023-05-07T07:28:11;25.80;99.90
28532;DHT22;15738;44.860;10.066;2023-05-07T07:30:56;25.90;99.90
28532;DHT22;15738;44.860;10.066;2023-05-07T07:33:42;26.00;99.90
28532;DHT22;15738;44.860;10.066;2023-05-07T07:36:28;26.10;99.90
28532;DHT22;15738;44.860;10.066;2023-05-07T07:39:32;26.00;99.90
28532;DHT22;15738;44.860;10.066;2023-05-07T07:42:18;25.80;99.90
28532;DHT22;15738;44.860;10.066;2023-05-07T07:45:04;25.70;99.90
28532;DHT22;15738;44.860;10.066;2023-05-07T07:47:53;25.90;99.90
28532;DHT22;15738;44.860;10.066;2023-05-07T07:50:39;26.00;99.90
28532;DHT22;15738;44.860;10.066;2023-05-07T07:53:31;25.90;99.90
28532;DHT22;15738;44.860;10.066;2023-05-07T07:56:18;26.10;99.90
28532;DHT22;15738;44.860;10.066;2023-05-07T07:59:03;26.30;99.90
28532;DHT22;15738;44.860;10.066;2023-05-07T08:01:50;26.40;99.90
28532;DHT22;15738;44.860;10.066;2023-05-07T08:04:41;26.50;99.90
28532;DHT22;15738;44.860;10.066;2023-05-07T08:07:28;26.40;99.90
28532;DHT22;15738;44.860;10.066;2023-05-07T08:10:14;26.60;99.90
28532;DHT22;15738;44.860;10.066;2023-05-07T08:13:09;26.60;99.90
28532;DHT22;15738;44.860;10.066;2023-05-07T08:15:58;26.70;99.90
28532;DHT22;15738;44.860;10.066;2023-05-07T08:18:44;26.80;99.90
28532;DHT22;15738;44.860;10.066;2023-05-07T08:21:29;26.80;99.90
28532;DHT22;15738;44.860;10.066;2023-05-07T08:24:19;27.00;99.90
28532;DHT22;15738;44.860;10.066;2023-05-07T08:27:05;27.40;99.90
28532;DHT22;15738;44.860;10.066;2023-05-07T08:29:51;27.40;99.90
28532;DHT22;15738;44.860;10.066;2023-05-07T08:32:38;27.80;99.90
28532;DHT22;15738;44.860;10.066;2023-05-07T08:35:24;28.00;99.90
28532;DHT22;15738;44.860;10.066;2023-05-07T08:38:11;28.00;99.90
28532;DHT22;15738;44.860;10.066;2023-05-07T08:40:57;28.10;99.90
28532;DHT22;15738;44.860;10.066;2023-05-07T08:43:49;27.80;99.90
28532;DHT22;15738;44.860;10.066;2023-05-07T08:46:36;27.90;99.90
28532;DHT22;15738;44.860;10.066;2023-05-07T08:49:22;27.60;99.90
28532;DHT22;15738;44.860;10.066;2023-05-07T08:52:08;27.10;99.90
28532;DHT22;15738;44.860;10.066;2023-05-07T08:54:56;26.90;99.90
28532;DHT22;15738;44.860;10.066;2023-05-07T08:57:42;26.90;99.90
28532;DHT22;15738;44.860;10.066;2023-05-07T09:00:29;26.30;99.90
28532;DHT22;15738;44.860;10.066;2023-05-07T09:03:16;26.20;99.90
28532;DHT22;15738;44.860;10.066;2023-05-07T09:06:06;26.50;99.90
28532;DHT22;15738;44.860;10.066;2023-05-07T09:08:55;27.00;99.90
28532;DHT22;15738;44.860;10.066;2023-05-07T09:11:44;27.20;99.90
28532;DHT22;15738;44.860;10.066;2023-05-07T09:14:32;27.40;99.90
28532;DHT22;15738;44.860;10.066;2023-05-07T09:17:20;27.50;99.90
28532;DHT22;15738;44.860;10.066;2023-05-07T09:20:06;27.60;99.90
28532;DHT22;15738;44.860;10.066;2023-05-07T09:22:56;27.80;99.90
28532;DHT22;15738;44.860;10.066;2023-05-07T09:25:43;27.80;99.90
28532;DHT22;15738;44.860;10.066;2023-05-07T09:28:37;27.70;99.90
28532;DHT22;15738;44.860;10.066;2023-05-07T09:31:23;27.50;99.90
28532;DHT22;15738;44.860;10.066;2023-05-07T09:34:12;27.40;99.90
28532;DHT22;15738;44.860;10.066;2023-05-07T09:37:01;27.50;99.90
28532;DHT22;15738;44.860;10.066;2023-05-07T09:39:49;27.40;99.90
28532;DHT22;15738;44.860;10.066;2023-05-07T09:42:38;27.40;99.90
28532;DHT22;15738;44.860;10.066;2023-05-07T09:45:25;27.50;99.90
28532;DHT22;15738;44.860;10.066;2023-05-07T09:48:11;27.60;99.90
28532;DHT22;15738;44.860;10.066;2023-05-07T09:50:59;27.80;99.90
28532;DHT22;15738;44.860;10.066;2023-05-07T09:53:49;27.70;99.90
28532;DHT22;15738;44.860;10.066;2023-05-07T09:56:35;27.70;99.90
28532;DHT22;15738;44.860;10.066;2023-05-07T09:59:23;27.70;99.90
28532;DHT22;15738;44.860;10.066;2023-05-07T10:02:10;27.70;99.90
28532;DHT22;15738;44.860;10.066;2023-05-07T10:05:03;27.50;99.90
28532;DHT22;15738;44.860;10.066;2023-05-07T10:07:52;27.30;99.90
28532;DHT22;15738;44.860;10.066;2023-05-07T10:10:39;27.10;99.90
28532;DHT22;15738;44.860;10.066;2023-05-07T10:13:29;26.60;99.90
28532;DHT22;15738;44.860;10.066;2023-05-07T10:16:17;26.30;99.90
28532;DHT22;15738;44.860;10.066;2023-05-07T10:19:06;26.30;99.90
28532;DHT22;15738;44.860;10.066;2023-05-07T10:21:56;26.30;99.90
28532;DHT22;15738;44.860;10.066;2023-05-07T10:24:45;26.20;99.90
28532;DHT22;15738;44.860;10.066;2023-05-07T10:27:35;26.00;99.90
28532;DHT22;15738;44.860;10.066;2023-05-07T10:30:25;26.20;99.90
28532;DHT22;15738;44.860;10.066;2023-05-07T10:33:13;26.30;99.90
28532;DHT22;15738;44.860;10.066;2023-05-07T10:36:02;26.40;99.90
28532;DHT22;15738;44.860;10.066;2023-05-07T10:38:51;26.10;99.90
28532;DHT22;15738;44.860;10.066;2023-05-07T10:41:37;25.90;99.90
28532;DHT22;15738;44.860;10.066;2023-05-07T10:44:26;25.90;99.90
28532;DHT22;15738;44.860;10.066;2023-05-07T10:47:15;25.90;99.90
28532;DHT22;15738;44.860;10.066;2023-05-07T10:53:33;26.20;99.90
28532;DHT22;15738;44.860;10.066;2023-05-07T11:02:21;26.30;99.90
28532;DHT22;15738;44.860;10.066;2023-05-07T11:05:18;26.30;99.90
28532;DHT22;15738;44.860;10.066;2023-05-07T11:08:06;26.50;99.90
28532;DHT22;15738;44.860;10.066;2023-05-07T11:10:59;26.40;99.90
28532;DHT22;15738;44.860;10.066;2023-05-07T11:14:04;26.20;99.90
28532;DHT22;15738;44.860;10.066;2023-05-07T11:17:04;26.10;99.90
28532;DHT22;15738;44.860;10.066;2023-05-07T11:19:51;26.20;99.90
28532;DHT22;15738;44.860;10.066;2023-05-07T11:23:00;26.30;99.90
28532;DHT22;15738;44.860;10.066;2023-05-07T11:26:15;26.40;99.90
28532;DHT22;15738;44.860;10.066;2023-05-07T11:29:01;26.50;99.90
28532;DHT22;15738;44.860;10.066;2023-05-07T11:31:51;26.70;99.90
28532;DHT22;15738;44.860;10.066;2023-05-07T11:34:38;26.70;99.90
28532;DHT22;15738;44.860;10.066;2023-05-07T11:37:24;26.80;99.90
28532;DHT22;15738;44.860;10.066;2023-05-07T11:40:21;26.80;99.90
28532;DHT22;15738;44.860;10.066;2023-05-07T11:43:10;26.60;99.90
28532;DHT22;15738;44.860;10.066;2023-05-07T11:46:04;26.40;99.90
28532;DHT22;15738;44.860;10.066;2023-05-07T11:48:50;26.40;99.90
28532;DHT22;15738;44.860;10.066;2023-05-07T11:51:36;26.30;99.90
28532;DHT22;15738;44.860;10.066;2023-05-07T11:54:22;26.40;99.90
28532;DHT22;15738;44.860;10.066;2023-05-07T11:57:14;26.40;99.90
28532;DHT22;15738;44.860;10.066;2023-05-07T12:00:00;26.50;99.90
28532;DHT22;15738;44.860;10.066;2023-05-07T12:02:56;26.50;99.90
28532;DHT22;15738;44.860;10.066;2023-05-07T12:05:48;26.50;99.90
28532;DHT22;15738;44.860;10.066;2023-05-07T12:08:36;26.50;99.90
28532;DHT22;15738;44.860;10.066;2023-05-07T12:11:23;26.40;99.90
28532;DHT22;15738;44.860;10.066;2023-05-07T12:14:09;26.50;99.90
28532;DHT22;15738;44.860;10.066;2023-05-07T12:16:56;26.60;99.90
28532;DHT22;15738;44.860;10.066;2023-05-07T12:19:42;26.70;99.90
28532;DHT22;15738;44.860;10.066;2023-05-07T12:22:31;26.80;99.90
28532;DHT22;15738;44.860;10.066;2023-05-07T12:25:18;26.70;99.90
28532;DHT22;15738;44.860;10.066;2023-05-07T12:28:04;26.70;99.90
28532;DHT22;15738;44.860;10.066;2023-05-07T12:30:50;26.60;99.90
28532;DHT22;15738;44.860;10.066;2023-05-07T12:33:36;26.50;99.90
28532;DHT22;15738;44.860;10.066;2023-05-07T12:36:22;26.60;99.90
28532;DHT22;15738;44.860;10.066;2023-05-07T12:39:08;26.70;99.90
28532;DHT22;15738;44.860;10.066;2023-05-07T12:41:58;26.70;99.90
28532;DHT22;15738;44.860;10.066;2023-05-07T12:44:45;26.80;99.90
28532;DHT22;15738;44.860;10.066;2023-05-07T12:47:31;26.50;99.90
28532;DHT22;15738;44.860;10.066;2023-05-07T12:50:18;26.50;99.90
28532;DHT22;15738;44.860;10.066;2023-05-07T12:53:04;26.40;99.90
28532;DHT22;15738;44.860;10.066;2023-05-07T12:55:52;26.40;99.90
28532;DHT22;15738;44.860;10.066;2023-05-07T12:58:38;26.50;99.90
28532;DHT22;15738;44.860;10.066;2023-05-07T13:01:28;26.70;99.90
28532;DHT22;15738;44.860;10.066;2023-05-07T13:04:14;26.90;99.90
28532;DHT22;15738;44.860;10.066;2023-05-07T13:07:02;27.00;99.90
28532;DHT22;15738;44.860;10.066;2023-05-07T13:09:48;27.00;99.90
28532;DHT22;15738;44.860;10.066;2023-05-07T13:12:34;26.90;99.90
28532;DHT22;15738;44.860;10.066;2023-05-07T13:15:20;26.80;99.90
28532;DHT22;15738;44.860;10.066;2023-05-07T13:18:06;26.70;99.90
28532;DHT22;15738;44.860;10.066;2023-05-07T13:20:53;26.70;99.90
28532;DHT22;15738;44.860;10.066;2023-05-07T13:23:39;26.70;99.90
28532;DHT22;15738;44.860;10.066;2023-05-07T13:26:25;26.70;99.90
28532;DHT22;15738;44.860;10.066;2023-05-07T13:29:11;26.60;99.90
28532;DHT22;15738;44.860;10.066;2023-05-07T13:31:57;26.60;99.90
28532;DHT22;15738;44.860;10.066;2023-05-07T13:34:43;26.80;99.90
28532;DHT22;15738;44.860;10.066;2023-05-07T13:37:29;26.70;99.90
28532;DHT22;15738;44.860;10.066;2023-05-07T13:40:14;26.50;99.90
28532;DHT22;15738;44.860;10.066;2023-05-07T13:43:00;26.50;99.90
28532;DHT22;15738;44.860;10.066;2023-05-07T13:45:47;26.40;99.90
28532;DHT22;15738;44.860;10.066;2023-05-07T13:48:33;26.40;99.90
28532;DHT22;15738;44.860;10.066;2023-05-07T13:51:19;26.30;99.90
28532;DHT22;15738;44.860;10.066;2023-05-07T13:54:04;26.10;99.90
28532;DHT22;15738;44.860;10.066;2023-05-07T13:56:50;26.20;99.90
28532;DHT22;15738;44.860;10.066;2023-05-07T13:59:36;26.00;99.90
28532;DHT22;15738;44.860;10.066;2023-05-07T14:02:21;25.80;99.90
28532;DHT22;15738;44.860;10.066;2023-05-07T14:05:07;25.80;99.90
28532;DHT22;15738;44.860;10.066;2023-05-07T14:07:55;26.00;99.90
28532;DHT22;15738;44.860;10.066;2023-05-07T14:10:42;26.00;99.90
28532;DHT22;15738;44.860;10.066;2023-05-07T14:13:27;25.90;99.90
28532;DHT22;15738;44.860;10.066;2023-05-07T14:16:15;26.00;99.90
28532;DHT22;15738;44.860;10.066;2023-05-07T14:19:01;26.10;99.90
28532;DHT22;15738;44.860;10.066;2023-05-07T14:21:47;26.10;99.90
28532;DHT22;15738;44.860;10.066;2023-05-07T14:24:33;26.00;99.90
28532;DHT22;15738;44.860;10.066;2023-05-07T14:27:22;25.80;99.90
28532;DHT22;15738;44.860;10.066;2023-05-07T14:30:08;25.70;99.90
28532;DHT22;15738;44.860;10.066;2023-05-07T14:32:54;25.70;99.90
28532;DHT22;15738;44.860;10.066;2023-05-07T14:35:39;25.70;99.90
28532;DHT22;15738;44.860;10.066;2023-05-07T14:38:25;25.90;99.90
28532;DHT22;15738;44.860;10.066;2023-05-07T14:41:11;25.80;99.90
28532;DHT22;15738;44.860;10.066;2023-05-07T14:43:56;25.80;99.90
28532;DHT22;15738;44.860;10.066;2023-05-07T14:46:44;25.80;99.90
28532;DHT22;15738;44.860;10.066;2023-05-07T14:49:29;25.80;99.90
28532;DHT22;15738;44.860;10.066;2023-05-07T14:52:15;25.90;99.90
28532;DHT22;15738;44.860;10.066;2023-05-07T14:55:01;26.00;99.90
28532;DHT22;15738;44.860;10.066;2023-05-07T14:57:47;26.20;99.90
28532;DHT22;15738;44.860;10.066;2023-05-07T15:00:33;26.20;99.90
28532;DHT22;15738;44.860;10.066;2023-05-07T15:03:19;26.30;99.90
28532;DHT22;15738;44.860;10.066;2023-05-07T15:06:05;26.30;99.90
28532;DHT22;15738;44.860;10.066;2023-05-07T15:08:50;26.20;99.90
28532;DHT22;15738;44.860;10.066;2023-05-07T15:11:36;26.10;99.90
28532;DHT22;15738;44.860;10.066;2023-05-07T15:14:22;26.00;99.90
28532;DHT22;15738;44.860;10.066;2023-05-07T15:17:08;26.00;99.90
28532;DHT22;15738;44.860;10.066;2023-05-07T15:19:53;26.10;99.90
28532;DHT22;15738;44.860;10.066;2023-05-07T15:22:39;26.10;99.90
28532;DHT22;15738;44.860;10.066;2023-05-07T15:25:27;26.10;99.90
28532;DHT22;15738;44.860;10.066;2023-05-07T15:28:13;25.90;99.90
28532;DHT22;15738;44.860;10.066;2023-05-07T15:30:59;25.90;99.90
28532;DHT22;15738;44.860;10.066;2023-05-07T15:33:45;25.90;99.90
28532;DHT22;15738;44.860;10.066;2023-05-07T15:36:33;25.80;99.90
28532;DHT22;15738;44.860;10.066;2023-05-07T15:39:18;25.80;99.90
28532;DHT22;15738;44.860;10.066;2023-05-07T15:42:06;25.60;99.90
28532;DHT22;15738;44.860;10.066;2023-05-07T15:44:52;25.60;99.90
28532;DHT22;15738;44.860;10.066;2023-05-07T15:47:37;25.50;99.90
28532;DHT22;15738;44.860;10.066;2023-05-07T15:50:23;25.60;99.90
28532;DHT22;15738;44.860;10.066;2023-05-07T15:53:08;25.60;99.90
28532;DHT22;15738;44.860;10.066;2023-05-07T15:55:55;25.60;99.90
28532;DHT22;15738;44.860;10.066;2023-05-07T15:58:40;25.60;99.90
28532;DHT22;15738;44.860;10.066;2023-05-07T16:01:26;25.60;99.90
28532;DHT22;15738;44.860;10.066;2023-05-07T16:04:12;25.60;99.90
28532;DHT22;15738;44.860;10.066;2023-05-07T16:06:58;25.70;99.90
28532;DHT22;15738;44.860;10.066;2023-05-07T16:09:44;25.70;99.90
28532;DHT22;15738;44.860;10.066;2023-05-07T16:12:29;25.70;99.90
28532;DHT22;15738;44.860;10.066;2023-05-07T16:15:15;25.80;99.90
28532;DHT22;15738;44.860;10.066;2023-05-07T16:18:00;25.70;99.90
28532;DHT22;15738;44.860;10.066;2023-05-07T16:20:46;25.70;99.90
28532;DHT22;15738;44.860;10.066;2023-05-07T16:23:32;25.80;99.90
28532;DHT22;15738;44.860;10.066;2023-05-07T16:26:18;25.90;99.90
28532;DHT22;15738;44.860;10.066;2023-05-07T16:29:04;25.90;99.90
28532;DHT22;15738;44.860;10.066;2023-05-07T16:31:52;26.00;99.90
28532;DHT22;15738;44.860;10.066;2023-05-07T16:34:37;26.00;99.90
28532;DHT22;15738;44.860;10.066;2023-05-07T16:37:23;26.00;99.90
28532;DHT22;15738;44.860;10.066;2023-05-07T16:40:09;26.00;99.90
28532;DHT22;15738;44.860;10.066;2023-05-07T16:42:54;26.00;99.90
28532;DHT22;15738;44.860;10.066;2023-05-07T16:45:40;25.90;99.90
28532;DHT22;15738;44.860;10.066;2023-05-07T16:48:26;25.80;99.90
28532;DHT22;15738;44.860;10.066;2023-05-07T16:51:12;25.70;99.90
28532;DHT22;15738;44.860;10.066;2023-05-07T16:53:57;25.60;99.90
28532;DHT22;15738;44.860;10.066;2023-05-07T16:56:43;25.50;99.90
28532;DHT22;15738;44.860;10.066;2023-05-07T16:59:28;25.50;99.90
28532;DHT22;15738;44.860;10.066;2023-05-07T17:02:17;25.40;99.90
28532;DHT22;15738;44.860;10.066;2023-05-07T17:05:03;25.30;99.90
28532;DHT22;15738;44.860;10.066;2023-05-07T17:07:50;25.20;99.90
28532;DHT22;15738;44.860;10.066;2023-05-07T17:10:36;25.20;99.90
28532;DHT22;15738;44.860;10.066;2023-05-07T17:13:22;25.10;99.90
28532;DHT22;15738;44.860;10.066;2023-05-07T17:16:07;25.10;99.90
28532;DHT22;15738;44.860;10.066;2023-05-07T17:18:53;25.10;99.90
28532;DHT22;15738;44.860;10.066;2023-05-07T17:21:39;25.00;99.90
28532;DHT22;15738;44.860;10.066;2023-05-07T17:24:25;25.00;99.90
28532;DHT22;15738;44.860;10.066;2023-05-07T17:27:11;25.00;99.90
28532;DHT22;15738;44.860;10.066;2023-05-07T17:29:56;24.90;99.90